Time;durP1;ratioP1;P1;durP2;ratioP2;P2;SDS_P1;SDS_P2;PMS_P1;PMS_P2;Temp;Humidity;BMP_temperature;BMP_pressure;BME280_temperature;BME280_humidity;BME280_pressure;Samples;Min_cycle;Max_cycle;Signal;HPM_P1;HPM_P2
2022/03/06 00:01:50;;;;;;;18.73;13.37;;;3.00;1.00;;;;;;5109376;28;20447;-58
2022/03/06 00:04:16;;;;;;;14.97;13.30;;;2.90;1.00;;;;;;5100379;28;20198;-58
2022/03/06 00:06:41;;;;;;;16.50;12.93;;;3.00;1.00;;;;;;5093539;28;20186;-58
2022/03/06 00:09:07;;;;;;;18.23;12.87;;;3.00;1.00;;;;;;5095268;28;20651;-57
2022/03/06 00:11:35;;;;;;;18.60;12.87;;;3.10;1.00;;;;;;5101558;28;20687;-57
2022/03/06 00:14:01;;;;;;;13.17;11.67;;;;;;;;;;5100312;28;20269;-58
2022/03/06 00:16:52;;;;;;;16.73;12.03;;;3.10;1.00;;;;;;5096482;28;20455;-57
2022/03/06 00:19:18;;;;;;;17.67;12.30;;;3.10;1.00;;;;;;5091777;28;20555;-58
2022/03/06 00:21:43;;;;;;;14.80;12.40;;;3.10;1.00;;;;;;5096548;28;20444;-58
2022/03/06 00:24:09;;;;;;;16.20;11.30;;;;;;;;;;5097307;28;20476;-58
2022/03/06 00:26:57;;;;;;;18.67;11.87;;;3.20;1.00;;;;;;5100077;28;20259;-59
2022/03/06 00:29:22;;;;;;;17.20;13.10;;;3.30;1.00;;;;;;5097045;28;20440;-58
2022/03/06 00:31:48;;;;;;;15.17;13.03;;;3.30;1.00;;;;;;5092460;28;20472;-57
2022/03/06 00:34:14;;;;;;;18.53;13.13;;;3.20;1.00;;;;;;5094896;28;20186;-58
2022/03/06 00:36:40;;;;;;;17.60;12.83;;;;;;;;;;5098829;28;20240;-59
2022/03/06 00:39:05;;;;;;;15.47;12.83;;;3.30;1.00;;;;;;5091632;28;20540;-58
2022/03/06 00:41:31;;;;;;;15.03;11.57;;;;;;;;;;5095440;28;20498;-58
2022/03/06 00:43:57;;;;;;;18.23;13.80;;;3.20;1.00;;;;;;5092606;28;20202;-57
2022/03/06 00:46:35;;;;;;;17.27;14.30;;;3.30;1.00;;;;;;5099900;28;20436;-58
2022/03/06 00:49:01;;;;;;;17.17;13.20;;;;;;;;;;5100734;28;20229;-56
2022/03/06 00:51:33;;;;;;;16.13;13.20;;;3.20;1.00;;;;;;5094381;28;20468;-57
2022/03/06 00:53:59;;;;;;;16.47;13.30;;;3.20;1.00;;;;;;5099307;28;20450;-59
2022/03/06 00:56:55;;;;;;;15.70;11.70;;;3.10;1.00;;;;;;5092054;28;20441;-57
2022/03/06 00:59:21;;;;;;;14.60;12.40;;;3.20;1.00;;;;;;5090087;28;20643;-57
2022/03/06 01:02:00;;;;;;;14.20;11.77;;;3.30;1.00;;;;;;5090531;28;20522;-58
2022/03/06 01:04:26;;;;;;;15.73;12.60;;;3.30;1.00;;;;;;5091252;28;20511;-58
2022/03/06 01:06:52;;;;;;;17.43;12.33;;;3.30;1.00;;;;;;5092530;28;20961;-58
2022/03/06 01:09:17;;;;;;;17.80;12.07;;;3.40;1.00;;;;;;5091034;28;20701;-57
2022/03/06 01:11:43;;;;;;;14.60;11.80;;;;;;;;;;5089950;28;20704;-56
2022/03/06 01:14:09;;;;;;;13.63;11.07;;;3.30;1.00;;;;;;5087583;28;20178;-56
2022/03/06 01:16:43;;;;;;;15.13;11.30;;;3.30;1.00;;;;;;5093336;28;20456;-56
2022/03/06 01:19:09;;;;;;;14.87;11.17;;;;;;;;;;5094088;28;20198;-57
2022/03/06 01:21:35;;;;;;;13.60;10.67;;;3.20;1.00;;;;;;5091442;28;20450;-57
2022/03/06 01:24:01;;;;;;;13.60;10.57;;;3.20;1.00;;;;;;5093745;28;22459;-56
2022/03/06 01:26:32;;;;;;;17.67;11.90;;;3.20;1.00;;;;;;5086653;28;20191;-57
2022/03/06 01:28:58;;;;;;;13.80;10.37;;;3.20;1.00;;;;;;5086248;28;20187;-58
2022/03/06 01:31:23;;;;;;;12.17;9.80;;;3.20;1.00;;;;;;5083664;28;20837;-58
2022/03/06 01:33:49;;;;;;;17.33;11.97;;;3.20;1.00;;;;;;5083958;28;20552;-57
2022/03/06 01:36:31;;;;;;;13.43;10.47;;;3.20;1.00;;;;;;5086717;28;20190;-58
2022/03/06 01:38:58;;;;;;;13.27;10.70;;;3.10;1.00;;;;;;5088285;28;20240;-58
2022/03/06 01:44:53;;;;;;;14.30;11.10;;;3.20;1.00;;;;;;5070462;28;20945;-56
2022/03/06 01:47:42;;;;;;;13.30;10.70;;;3.20;1.00;;;;;;5092160;28;20464;-56
2022/03/06 01:50:27;;;;;;;13.93;10.50;;;3.20;1.00;;;;;;5089955;28;20186;-57
2022/03/06 01:52:55;;;;;;;15.07;11.20;;;3.20;1.00;;;;;;5089575;28;21027;-56
2022/03/06 01:55:24;;;;;;;14.60;9.60;;;3.30;1.00;;;;;;5091592;28;20504;-59
2022/03/06 01:57:54;;;;;;;12.23;9.37;;;3.20;1.00;;;;;;5087433;28;20441;-57
2022/03/06 02:00:26;;;;;;;10.80;9.73;;;3.20;1.00;;;;;;5089365;28;20457;-56
2022/03/06 02:02:52;;;;;;;14.00;10.07;;;3.20;1.00;;;;;;5087756;28;20825;-57
2022/03/06 02:05:18;;;;;;;15.83;10.47;;;3.20;1.00;;;;;;5084918;28;20460;-57
2022/03/06 02:07:44;;;;;;;12.60;10.03;;;3.20;1.00;;;;;;5086503;28;20480;-57
2022/03/06 02:10:10;;;;;;;12.20;10.00;;;3.20;1.00;;;;;;5090230;28;20464;-57
2022/03/06 02:12:37;;;;;;;10.30;9.10;;;3.30;1.00;;;;;;5090698;28;20611;-57
2022/03/06 02:15:06;;;;;;;17.33;10.13;;;3.30;1.00;;;;;;5094756;28;20502;-57
2022/03/06 02:17:41;;;;;;;16.03;9.57;;;3.30;1.00;;;;;;5090530;28;20459;-57
2022/03/06 02:20:14;;;;;;;18.03;9.63;;;3.30;1.00;;;;;;5088948;28;20493;-56
2022/03/06 02:22:43;;;;;;;15.00;10.27;;;3.40;1.00;;;;;;5089730;28;20441;-58
2022/03/06 02:25:18;;;;;;;12.70;9.27;;;3.40;1.00;;;;;;5088988;28;20532;-57
2022/03/06 02:27:44;;;;;;;11.70;9.50;;;3.30;1.00;;;;;;5092430;28;20443;-56
2022/03/06 02:30:13;;;;;;;11.23;9.37;;;3.20;1.00;;;;;;5089789;28;20522;-56
2022/03/06 02:32:39;;;;;;;12.53;8.93;;;3.20;1.00;;;;;;5087844;28;20453;-57
2022/03/06 02:35:06;;;;;;;12.93;9.77;;;3.30;1.00;;;;;;5088915;28;20460;-57
2022/03/06 02:37:32;;;;;;;14.77;10.10;;;3.30;1.00;;;;;;5091018;28;20873;-57
2022/03/06 02:40:02;;;;;;;13.23;9.63;;;3.40;1.00;;;;;;5084460;28;20548;-57
2022/03/06 02:42:30;;;;;;;12.87;10.60;;;3.30;1.00;;;;;;5088853;28;20186;-56
2022/03/06 02:44:58;;;;;;;12.93;9.87;;;3.20;1.00;;;;;;5088537;28;20444;-57
2022/03/06 02:47:32;;;;;;;14.30;10.27;;;3.30;1.00;;;;;;5090676;28;20447;-57
2022/03/06 02:49:58;;;;;;;16.60;10.40;;;3.30;1.00;;;;;;5092813;28;21031;-56
2022/03/06 02:52:23;;;;;;;13.77;10.53;;;3.40;1.00;;;;;;5091434;28;20523;-57
2022/03/06 02:54:49;;;;;;;16.30;11.87;;;;;;;;;;5088011;28;20191;-57
2022/03/06 02:59:50;;;;;;;13.43;10.87;;;3.40;1.00;;;;;;5087423;28;20459;-58
2022/03/06 03:02:56;;;;;;;12.23;10.47;;;3.30;1.00;;;;;;5090647;28;20471;-56
2022/03/06 03:05:23;;;;;;;16.30;10.50;;;3.10;1.00;;;;;;5086087;28;20206;-56
2022/03/06 03:10:43;;;;;;;13.70;10.47;;;;;;;;;;5084806;28;20964;-58
2022/03/06 03:13:11;;;;;;;14.53;9.50;;;3.00;1.00;;;;;;5085975;28;20441;-56
2022/03/06 03:15:37;;;;;;;12.00;9.27;;;;;;;;;;5090535;28;20444;-57
2022/03/06 03:18:03;;;;;;;12.97;10.40;;;2.90;1.00;;;;;;5088519;28;20522;-56
2022/03/06 03:20:29;;;;;;;11.77;9.80;;;3.10;1.00;;;;;;5089513;28;20513;-57
2022/03/06 03:22:54;;;;;;;10.10;9.03;;;3.10;1.00;;;;;;5092360;28;20255;-58
2022/03/06 03:25:20;;;;;;;13.13;8.27;;;3.10;1.00;;;;;;5092994;28;20175;-60
2022/03/06 03:28:06;;;;;;;10.33;8.80;;;3.10;1.00;;;;;;5094115;28;20212;-58
2022/03/06 03:30:31;;;;;;;11.10;9.07;;;3.00;1.00;;;;;;5089501;28;20692;-57
2022/03/06 03:35:22;;;;;;;15.03;11.13;;;2.80;1.00;;;;;;5094478;28;20217;-58
2022/03/06 03:38:08;;;;;;;13.03;11.10;;;2.70;1.00;;;;;;5095486;28;20281;-57
2022/03/06 03:40:33;;;;;;;12.60;9.37;;;2.60;1.00;;;;;;5092428;28;20265;-58
2022/03/06 03:42:59;;;;;;;11.50;8.67;;;;;;;;;;5092222;28;20571;-57
2022/03/06 03:45:25;;;;;;;14.33;10.27;;;2.60;1.00;;;;;;5091800;28;20265;-57
2022/03/06 03:48:20;;;;;;;15.97;12.30;;;2.60;1.00;;;;;;5097415;28;20451;-56
2022/03/06 03:50:46;;;;;;;14.10;9.80;;;;;;;;;;5087320;28;20198;-56
2022/03/06 03:53:11;;;;;;;16.17;11.27;;;2.40;1.00;;;;;;5093347;28;20447;-57
2022/03/06 03:55:37;;;;;;;13.87;9.53;;;2.40;1.00;;;;;;5091773;28;20460;-57
2022/03/06 03:58:03;;;;;;;16.70;12.00;;;;;;;;;;5093636;28;20540;-59
2022/03/06 04:00:28;;;;;;;23.17;14.03;;;2.50;1.00;;;;;;5099693;28;20609;-57
2022/03/06 04:02:54;;;;;;;18.53;12.43;;;2.40;1.00;;;;;;5098460;28;20438;-56
2022/03/06 04:05:19;;;;;;;12.63;8.83;;;2.40;1.00;;;;;;5093084;28;20195;-57
2022/03/06 04:10:51;;;;;;;13.20;8.60;;;2.60;1.00;;;;;;5088959;28;20194;-57
2022/03/06 04:13:17;;;;;;;13.10;9.10;;;;;;;;;;5093573;28;20513;-57
2022/03/06 04:15:45;;;;;;;9.43;7.67;;;;;;;;;;5091627;28;20198;-55
2022/03/06 04:18:30;;;;;;;11.73;9.63;;;2.80;1.00;;;;;;5092432;28;20460;-58
2022/03/06 04:20:56;;;;;;;14.83;10.17;;;2.80;1.00;;;;;;5093517;28;20748;-57
2022/03/06 04:23:22;;;;;;;12.80;9.27;;;2.80;1.00;;;;;;5092756;28;20473;-57
2022/03/06 04:25:47;;;;;;;18.60;12.07;;;;;;;;;;5092032;28;20689;-58
2022/03/06 04:28:13;;;;;;;15.10;11.17;;;2.70;1.00;;;;;;5095536;28;20183;-57
2022/03/06 04:30:39;;;;;;;10.27;9.17;;;2.60;1.00;;;;;;5089648;28;20807;-57
2022/03/06 04:33:24;;;;;;;11.20;8.17;;;2.80;1.00;;;;;;5092345;28;20186;-57
2022/03/06 04:35:50;;;;;;;14.10;9.20;;;2.80;1.00;;;;;;5091269;28;20189;-57
2022/03/06 04:41:05;;;;;;;9.17;8.13;;;3.10;1.00;;;;;;5080864;28;20198;-57
2022/03/06 04:43:30;;;;;;;10.17;8.00;;;3.20;1.00;;;;;;5099249;28;20468;-55
2022/03/06 04:45:56;;;;;;;9.83;8.00;;;3.20;1.00;;;;;;5094711;28;20254;-56
2022/03/06 04:48:22;;;;;;;14.50;8.80;;;3.10;1.00;;;;;;5091685;28;20239;-58
2022/03/06 04:50:48;;;;;;;8.93;7.90;;;3.20;1.00;;;;;;5091831;28;20249;-57
2022/03/06 04:53:13;;;;;;;12.93;8.70;;;3.20;1.00;;;;;;5094283;28;20444;-58
2022/03/06 04:55:39;;;;;;;11.47;8.90;;;;;;;;;;5090426;28;20186;-56
2022/03/06 04:58:05;;;;;;;9.00;7.03;;;3.40;1.00;;;;;;5090982;28;20258;-56
2022/03/06 05:00:32;;;;;;;12.77;8.50;;;3.40;1.00;;;;;;5089382;28;20621;-57
2022/03/06 05:02:58;;;;;;;12.13;8.47;;;3.40;1.00;;;;;;5089436;28;20218;-57
2022/03/06 05:05:24;;;;;;;12.10;8.90;;;3.30;1.00;;;;;;5092052;28;20455;-57
2022/03/06 05:07:49;;;;;;;11.40;9.60;;;3.20;1.00;;;;;;5090732;28;20183;-56
2022/03/06 05:10:15;;;;;;;14.73;8.90;;;3.20;1.00;;;;;;5091687;28;20444;-57
2022/03/06 05:16:06;;;;;;;11.07;8.70;;;3.10;1.00;;;;;;5076769;28;20190;-57
2022/03/06 05:18:32;;;;;;;11.53;9.30;;;3.10;1.00;;;;;;5091797;28;20440;-57
2022/03/06 05:20:58;;;;;;;10.00;8.20;;;3.10;1.00;;;;;;5091046;28;20641;-56
2022/03/06 05:23:52;;;;;;;14.20;9.30;;;3.10;1.00;;;;;;5092937;28;20191;-57
2022/03/06 05:26:18;;;;;;;13.03;9.20;;;3.10;1.00;;;;;;5083520;28;20209;-56
2022/03/06 05:28:44;;;;;;;11.13;9.10;;;;;;;;;;5092499;28;20950;-56
2022/03/06 05:31:10;;;;;;;9.20;8.23;;;3.00;1.00;;;;;;5094590;28;20222;-57
2022/03/06 05:33:36;;;;;;;9.80;8.30;;;3.00;1.00;;;;;;5090020;28;20452;-58
2022/03/06 05:36:02;;;;;;;12.83;8.97;;;3.20;1.00;;;;;;5090094;28;20259;-57
2022/03/06 05:38:27;;;;;;;10.03;7.90;;;3.10;1.00;;;;;;5090405;28;20457;-57
2022/03/06 05:40:53;;;;;;;10.20;8.27;;;3.10;1.00;;;;;;5089661;28;20452;-57
2022/03/06 05:43:59;;;;;;;14.10;8.30;;;3.10;1.00;;;;;;5086796;28;20236;-58
2022/03/06 05:46:24;;;;;;;17.07;9.83;;;3.10;1.00;;;;;;5084333;28;20206;-58
2022/03/06 05:52:17;;;;;;;10.87;7.37;;;;;;;;;;5017026;28;20274;-58
2022/03/06 05:54:43;;;;;;;13.17;7.53;;;2.70;1.00;;;;;;5088641;28;20916;-58
2022/03/06 05:57:09;;;;;;;15.67;8.30;;;;;;;;;;5089238;28;22030;-57
2022/03/06 05:59:35;;;;;;;11.90;8.03;;;;;;;;;;5089482;28;20464;-58
2022/03/06 06:02:01;;;;;;;11.63;8.67;;;2.50;1.00;;;;;;5089088;28;20444;-57
2022/03/06 06:04:27;;;;;;;11.80;8.70;;;2.60;1.00;;;;;;5089280;28;20476;-57
2022/03/06 06:06:52;;;;;;;15.20;9.57;;;2.70;1.00;;;;;;5089877;28;20460;-58
2022/03/06 06:09:18;;;;;;;14.53;8.40;;;2.90;1.00;;;;;;5086410;28;20646;-58
2022/03/06 06:11:44;;;;;;;9.73;8.23;;;3.10;1.00;;;;;;5086562;28;20219;-58
2022/03/06 06:14:10;;;;;;;13.57;8.40;;;;;;;;;;5090271;28;20190;-56
2022/03/06 06:16:36;;;;;;;9.47;7.37;;;3.10;1.00;;;;;;5089867;28;20648;-56
2022/03/06 06:19:03;;;;;;;11.43;7.93;;;3.20;1.00;;;;;;5088551;28;20534;-57
2022/03/06 06:21:28;;;;;;;12.67;9.17;;;3.30;1.00;;;;;;5089161;28;21063;-57
2022/03/06 06:23:54;;;;;;;10.10;7.33;;;3.10;1.00;;;;;;5088945;28;20595;-58
2022/03/06 06:26:20;;;;;;;11.50;7.40;;;3.20;1.00;;;;;;5092999;28;20193;-56
2022/03/06 06:28:48;;;;;;;11.00;8.00;;;3.10;1.00;;;;;;5088740;28;20236;-56
2022/03/06 06:31:13;;;;;;;10.00;7.90;;;3.10;1.00;;;;;;5092292;28;20233;-57
2022/03/06 06:33:39;;;;;;;9.87;7.83;;;;;;;;;;5092628;28;20936;-57
2022/03/06 06:36:06;;;;;;;12.97;8.63;;;3.20;1.00;;;;;;5089864;28;21572;-57
2022/03/06 06:38:31;;;;;;;11.20;7.93;;;3.20;1.00;;;;;;5085464;28;20461;-57
2022/03/06 06:40:57;;;;;;;11.73;9.23;;;;;;;;;;5089959;28;21343;-57
2022/03/06 06:43:23;;;;;;;11.77;8.30;;;3.40;1.00;;;;;;5087999;28;20207;-58
2022/03/06 06:45:49;;;;;;;9.40;7.70;;;4.80;1.00;;;;;;5088788;28;20455;-57
2022/03/06 06:48:15;;;;;;;11.90;7.80;;;;;;;;;;5086974;28;20453;-57
2022/03/06 06:50:41;;;;;;;9.50;8.10;;;3.30;1.00;;;;;;5091194;28;20194;-58
2022/03/06 06:53:07;;;;;;;9.83;7.93;;;;;;;;;;5086787;28;20483;-57
2022/03/06 06:55:35;;;;;;;15.07;8.83;;;3.30;1.00;;;;;;5090327;28;20193;-59
2022/03/06 06:58:01;;;;;;;14.30;8.03;;;3.40;1.00;;;;;;5087577;28;20460;-57
2022/03/06 07:00:27;;;;;;;13.93;8.87;;;3.60;1.00;;;;;;5089518;28;20440;-57
2022/03/06 07:02:52;;;;;;;9.43;7.77;;;3.40;1.00;;;;;;5088894;28;20456;-56
2022/03/06 07:05:18;;;;;;;11.80;7.97;;;3.40;1.00;;;;;;5089425;28;20202;-58
2022/03/06 07:07:43;;;;;;;15.83;7.77;;;3.50;1.00;;;;;;5095307;28;20194;-59
2022/03/06 07:10:10;;;;;;;10.67;8.40;;;;;;;;;;5087488;28;20213;-58
2022/03/06 07:12:47;;;;;;;9.00;7.73;;;3.60;1.00;;;;;;5085652;28;20194;-57
2022/03/06 07:15:14;;;;;;;9.83;7.73;;;3.70;1.00;;;;;;5088214;28;20543;-59
2022/03/06 07:17:40;;;;;;;10.10;7.47;;;3.60;1.00;;;;;;5088296;28;20452;-58
2022/03/06 07:20:07;;;;;;;14.90;9.00;;;3.60;1.00;;;;;;5091003;28;20488;-58
2022/03/06 07:22:33;;;;;;;10.03;7.70;;;3.50;1.00;;;;;;5090663;28;20535;-57
2022/03/06 07:24:59;;;;;;;8.90;7.00;;;;;;;;;;5085945;28;20464;-56
2022/03/06 07:27:24;;;;;;;10.70;7.40;;;3.50;1.00;;;;;;5088338;28;20194;-58
2022/03/06 07:29:50;;;;;;;9.33;7.27;;;3.60;1.00;;;;;;5088413;28;20878;-59
2022/03/06 07:32:16;;;;;;;9.00;7.63;;;3.60;1.00;;;;;;5086127;28;20225;-58
2022/03/06 07:34:42;;;;;;;10.80;7.47;;;3.70;1.00;;;;;;5088421;28;20552;-58
2022/03/06 07:37:08;;;;;;;7.70;6.80;;;;;;;;;;5089410;28;20449;-59
2022/03/06 07:39:33;;;;;;;10.10;7.57;;;3.70;1.00;;;;;;5088380;28;20456;-57
2022/03/06 07:41:59;;;;;;;12.93;7.40;;;3.70;1.00;;;;;;5088998;28;20443;-57
2022/03/06 07:44:24;;;;;;;8.17;7.37;;;3.70;1.00;;;;;;5089060;28;20264;-59
2022/03/06 07:46:50;;;;;;;9.50;7.10;;;3.70;1.00;;;;;;5090093;28;20182;-58
2022/03/06 07:49:16;;;;;;;12.30;7.57;;;;;;;;;;5090955;28;20190;-58
2022/03/06 07:51:41;;;;;;;9.73;6.40;;;4.00;1.00;;;;;;5089195;28;20487;-58
2022/03/06 07:54:13;;;;;;;8.40;6.90;;;;;;;;;;5092355;28;20847;-58
2022/03/06 07:56:39;;;;;;;10.07;6.70;;;3.90;1.00;;;;;;5088476;28;20529;-59
2022/03/06 07:59:04;;;;;;;9.30;7.20;;;3.90;1.00;;;;;;5093618;28;20448;-57
2022/03/06 08:01:30;;;;;;;7.10;6.40;;;;;;;;;;5089917;28;20189;-58
2022/03/06 08:03:55;;;;;;;9.23;6.40;;;4.10;1.00;;;;;;5095008;28;20202;-58
2022/03/06 08:06:23;;;;;;;9.53;6.53;;;;;;;;;;5092389;28;20432;-58
2022/03/06 08:08:48;;;;;;;9.53;6.70;;;4.20;1.00;;;;;;5101411;28;20259;-56
2022/03/06 08:11:14;;;;;;;9.87;6.90;;;4.20;1.00;;;;;;5093637;28;20874;-56
2022/03/06 08:13:39;;;;;;;8.67;7.50;;;4.20;1.00;;;;;;5092600;28;20178;-58
2022/03/06 08:16:05;;;;;;;8.70;7.10;;;;;;;;;;5093071;28;20178;-58
2022/03/06 08:18:31;;;;;;;10.13;7.37;;;;;;;;;;5096310;28;20193;-59
2022/03/06 08:20:57;;;;;;;8.30;7.00;;;4.90;1.00;;;;;;5092576;28;20436;-59
2022/03/06 08:23:22;;;;;;;8.27;6.57;;;5.00;1.00;;;;;;5093228;28;20933;-58
2022/03/06 08:25:48;;;;;;;9.93;7.00;;;5.00;1.00;;;;;;5091513;28;20175;-57
2022/03/06 08:28:13;;;;;;;7.33;5.90;;;5.00;1.00;;;;;;5093831;28;20171;-58
2022/03/06 08:30:39;;;;;;;8.17;6.63;;;4.90;1.00;;;;;;5092463;28;20218;-58
2022/03/06 08:33:05;;;;;;;7.43;6.40;;;;;;;;;;5091815;28;20182;-58
2022/03/06 08:35:31;;;;;;;10.23;7.10;;;5.00;1.00;;;;;;5092099;28;20187;-59
2022/03/06 08:37:57;;;;;;;7.10;6.20;;;;;;;;;;5093241;28;21159;-58
2022/03/06 08:40:23;;;;;;;8.40;6.07;;;5.10;1.00;;;;;;5095445;28;20670;-59
2022/03/06 08:42:48;;;;;;;18.50;12.50;;;5.20;1.00;;;;;;5091562;28;20448;-58
2022/03/06 08:45:14;;;;;;;15.27;9.73;;;5.30;1.00;;;;;;5093663;28;20441;-58
2022/03/06 08:47:40;;;;;;;17.53;11.60;;;5.50;1.00;;;;;;5092242;28;20302;-59
2022/03/06 08:50:06;;;;;;;10.90;7.37;;;;;;;;;;5097916;28;20676;-60
2022/03/06 08:52:32;;;;;;;7.70;5.90;;;;;;;;;;5092609;28;20182;-60
2022/03/06 08:54:57;;;;;;;7.50;6.50;;;5.70;1.00;;;;;;5091089;28;20439;-59
2022/03/06 08:57:23;;;;;;;8.30;5.37;;;;;;;;;;5092979;28;20440;-57
2022/03/06 08:59:50;;;;;;;8.20;5.93;;;6.00;1.00;;;;;;5089655;28;20262;-57
2022/03/06 09:02:16;;;;;;;6.50;5.77;;;5.70;1.00;;;;;;5094719;28;20778;-57
2022/03/06 09:04:42;;;;;;;7.10;5.30;;;;;;;;;;5091669;28;20517;-58
2022/03/06 09:07:07;;;;;;;6.83;6.00;;;5.60;1.00;;;;;;5091383;28;20174;-58
2022/03/06 09:09:33;;;;;;;6.17;5.53;;;5.60;1.00;;;;;;5091866;28;20510;-57
2022/03/06 09:11:59;;;;;;;9.90;6.70;;;;;;;;;;5092604;28;20183;-59
2022/03/06 09:14:26;;;;;;;7.17;5.83;;;5.70;1.00;;;;;;5091971;28;20918;-59
2022/03/06 09:16:51;;;;;;;6.40;5.60;;;5.70;1.00;;;;;;5090807;28;20447;-59
2022/03/06 09:19:17;;;;;;;8.13;5.93;;;5.80;1.00;;;;;;5087269;28;20434;-59
2022/03/06 09:21:43;;;;;;;8.40;6.27;;;5.90;1.00;;;;;;5088903;28;20218;-57
2022/03/06 09:24:09;;;;;;;6.60;6.00;;;6.30;1.00;;;;;;5090638;28;20209;-58
2022/03/06 09:26:35;;;;;;;6.43;5.20;;;6.10;1.00;;;;;;5091165;28;20217;-59
2022/03/06 09:29:01;;;;;;;5.90;5.30;;;6.00;1.00;;;;;;5096549;28;20481;-59
2022/03/06 09:31:26;;;;;;;6.87;5.77;;;6.10;1.00;;;;;;5091829;28;20234;-57
2022/03/06 09:33:52;;;;;;;9.70;8.30;;;6.30;1.00;;;;;;5094245;28;20186;-57
2022/03/06 09:36:17;;;;;;;6.87;6.27;;;6.40;1.00;;;;;;5092326;28;20189;-58
2022/03/06 09:38:43;;;;;;;6.13;5.10;;;6.60;1.00;;;;;;5089373;28;20572;-58
2022/03/06 09:41:14;;;;;;;6.83;6.13;;;6.50;1.00;;;;;;5094892;28;20210;-59
2022/03/06 09:43:40;;;;;;;7.93;6.30;;;;;;;;;;5093926;28;20210;-57
2022/03/06 09:46:07;;;;;;;6.30;5.70;;;6.10;1.00;;;;;;5088658;28;20961;-57
2022/03/06 09:48:34;;;;;;;7.30;5.97;;;6.00;1.00;;;;;;5091125;28;20447;-58
2022/03/06 09:51:05;;;;;;;8.97;6.80;;;6.20;1.00;;;;;;5096237;28;20868;-58
2022/03/06 09:53:32;;;;;;;7.67;6.30;;;;;;;;;;5095464;28;20817;-60
2022/03/06 09:55:57;;;;;;;9.20;6.20;;;6.70;1.00;;;;;;5094207;28;20448;-58
2022/03/06 09:58:23;;;;;;;6.97;6.07;;;6.70;1.00;;;;;;5089695;28;20540;-58
2022/03/06 10:00:49;;;;;;;7.67;6.40;;;6.50;1.00;;;;;;5094852;28;20502;-60
2022/03/06 10:03:21;;;;;;;7.00;5.73;;;6.40;1.00;;;;;;5090765;28;20883;-60
2022/03/06 10:05:47;;;;;;;6.03;5.53;;;6.00;1.00;;;;;;5094648;28;20432;-59
2022/03/06 10:08:21;;;;;;;9.43;7.40;;;5.60;1.00;;;;;;5089320;28;20882;-59
2022/03/06 10:10:58;;;;;;;7.87;6.90;;;5.40;1.00;;;;;;5089765;28;20216;-62
2022/03/06 10:13:28;;;;;;;8.47;5.70;;;5.30;1.00;;;;;;5088248;28;20448;-58
2022/03/06 10:16:04;;;;;;;9.00;5.53;;;5.30;1.00;;;;;;5090852;28;20432;-60
2022/03/06 10:18:31;;;;;;;7.80;6.57;;;5.60;1.00;;;;;;5089907;28;20442;-57
2022/03/06 10:21:09;;;;;;;7.53;6.37;;;5.60;1.00;;;;;;5099855;28;20456;-59
2022/03/06 10:23:35;;;;;;;7.00;6.30;;;;;;;;;;5088965;28;20479;-60
2022/03/06 10:26:10;;;;;;;7.80;6.40;;;5.90;1.00;;;;;;5092014;28;20451;-59
2022/03/06 10:28:47;;;;;;;7.20;6.50;;;6.00;1.00;;;;;;5089035;28;20439;-59
2022/03/06 10:31:13;;;;;;;9.93;7.23;;;6.10;1.00;;;;;;5089074;28;20524;-59
2022/03/06 10:33:39;;;;;;;8.57;6.70;;;6.00;1.00;;;;;;5099136;28;20439;-59
2022/03/06 10:36:08;;;;;;;8.67;7.70;;;5.80;1.00;;;;;;5095329;28;20506;-59
2022/03/06 10:38:35;;;;;;;9.50;7.60;;;5.90;1.00;;;;;;5093635;28;20293;-57
2022/03/06 10:41:17;;;;;;;9.20;7.17;;;6.00;1.00;;;;;;5088098;28;20444;-59
2022/03/06 10:43:43;;;;;;;12.50;8.63;;;5.50;1.00;;;;;;5121155;27;20474;-59
2022/03/06 10:46:11;;;;;;;12.30;9.03;;;5.30;1.00;;;;;;5090961;28;20454;-59
2022/03/06 10:48:41;;;;;;;12.37;8.40;;;5.30;1.00;;;;;;5096394;28;20439;-58
2022/03/06 10:51:09;;;;;;;12.10;9.10;;;5.30;1.00;;;;;;5089955;28;20456;-58
2022/03/06 10:53:37;;;;;;;11.40;7.80;;;5.40;1.00;;;;;;5090191;28;20456;-58
2022/03/06 10:56:21;;;;;;;12.80;8.73;;;5.40;1.00;;;;;;5090062;28;20437;-58
2022/03/06 10:58:48;;;;;;;11.40;8.63;;;5.50;1.00;;;;;;5085110;28;20460;-60
2022/03/06 11:01:14;;;;;;;19.77;10.07;;;5.90;1.00;;;;;;5089761;28;20528;-58
2022/03/06 11:03:42;;;;;;;11.50;8.57;;;6.70;1.00;;;;;;5089960;28;20472;-59
2022/03/06 11:06:09;;;;;;;10.37;8.17;;;6.40;1.00;;;;;;5088141;28;20806;-58
2022/03/06 11:08:37;;;;;;;10.13;8.63;;;6.30;1.00;;;;;;5089150;28;20428;-60
2022/03/06 11:11:07;;;;;;;10.03;8.70;;;5.90;1.00;;;;;;5092664;28;20468;-58
2022/03/06 11:13:32;;;;;;;11.00;8.60;;;5.80;1.00;;;;;;5087486;28;20427;-58
2022/03/06 11:15:59;;;;;;;12.83;8.90;;;5.70;1.00;;;;;;5091285;28;20808;-58
2022/03/06 11:18:26;;;;;;;14.87;10.30;;;5.50;1.00;;;;;;5090857;28;20220;-58
2022/03/06 11:20:57;;;;;;;12.27;9.93;;;5.70;1.00;;;;;;5092710;28;20806;-59
2022/03/06 11:23:37;;;;;;;12.47;9.03;;;5.70;1.00;;;;;;5089438;28;20557;-57
2022/03/06 11:26:15;;;;;;;14.60;9.37;;;5.60;1.00;;;;;;5090824;28;20990;-56
2022/03/06 11:28:43;;;;;;;11.40;9.10;;;5.60;1.00;;;;;;5090388;28;20853;-57
2022/03/06 11:31:10;;;;;;;9.70;8.57;;;5.80;1.00;;;;;;5089064;28;20480;-57
2022/03/06 11:33:41;;;;;;;11.33;9.93;;;5.90;1.00;;;;;;5089457;28;20455;-61
2022/03/06 11:36:22;;;;;;;10.30;9.30;;;5.90;1.00;;;;;;5090740;28;20474;-59
2022/03/06 11:38:49;;;;;;;8.50;7.60;;;5.90;1.00;;;;;;5103655;28;20540;-60
2022/03/06 11:41:15;;;;;;;9.23;7.30;;;5.90;1.00;;;;;;5096595;28;20822;-58
2022/03/06 11:43:46;;;;;;;9.93;8.30;;;5.60;1.00;;;;;;5094780;28;20596;-60
2022/03/06 11:46:25;;;;;;;8.20;7.40;;;5.50;1.00;;;;;;5093078;28;20186;-59
2022/03/06 11:48:51;;;;;;;9.93;8.67;;;4.10;1.00;;;;;;5097424;28;20451;-57
2022/03/06 11:51:17;;;;;;;12.93;8.40;;;;;;;;;;5095320;28;20431;-56
2022/03/06 11:54:05;;;;;;;11.23;8.00;;;5.00;1.00;;;;;;5096780;28;20175;-58
2022/03/06 11:56:39;;;;;;;11.80;9.40;;;4.80;1.00;;;;;;5091328;28;20501;-59
2022/03/06 11:59:06;;;;;;;12.47;8.70;;;4.80;1.00;;;;;;5095253;28;20525;-60
2022/03/06 12:01:43;;;;;;;10.00;8.73;;;5.00;1.00;;;;;;5092857;28;20502;-57
2022/03/06 12:04:11;;;;;;;8.20;7.40;;;5.10;1.00;;;;;;5095873;28;20463;-59
2022/03/06 12:06:39;;;;;;;9.37;8.33;;;5.20;1.00;;;;;;5097077;28;20452;-59
2022/03/06 12:09:41;;;;;;;10.10;8.27;;;5.10;1.00;;;;;;5096456;28;20452;-60
2022/03/06 12:12:10;;;;;;;10.30;8.40;;;5.10;1.00;;;;;;5079568;28;20448;-58
2022/03/06 12:14:38;;;;;;;10.40;9.07;;;5.00;1.00;;;;;;5092690;28;21038;-59
2022/03/06 12:17:04;;;;;;;8.03;7.13;;;5.00;1.00;;;;;;5092481;28;20964;-57
2022/03/06 12:19:45;;;;;;;11.23;8.10;;;5.00;1.00;;;;;;5092204;28;20440;-58
2022/03/06 12:22:21;;;;;;;9.20;7.93;;;4.90;1.00;;;;;;5093478;28;20967;-56
2022/03/06 12:24:49;;;;;;;9.43;7.70;;;4.90;1.00;;;;;;5101560;28;20991;-57
2022/03/06 12:27:19;;;;;;;8.70;7.80;;;4.80;1.00;;;;;;5101877;28;21061;-56
2022/03/06 12:29:54;;;;;;;8.73;7.60;;;4.70;1.00;;;;;;5090056;28;20446;-56
2022/03/06 12:32:25;;;;;;;8.93;8.03;;;4.80;1.00;;;;;;5102232;28;20440;-57
2022/03/06 12:35:00;;;;;;;8.60;7.70;;;4.90;1.00;;;;;;5097307;28;21012;-57
2022/03/06 12:37:27;;;;;;;10.90;7.87;;;;;;;;;;5097368;28;20816;-57
2022/03/06 12:39:53;;;;;;;8.13;7.33;;;4.80;1.00;;;;;;5090639;28;20449;-56
2022/03/06 12:42:30;;;;;;;9.57;6.97;;;4.70;1.00;;;;;;5093393;28;20452;-57
2022/03/06 12:44:58;;;;;;;8.60;7.20;;;4.70;1.00;;;;;;5091886;28;20921;-58
2022/03/06 12:47:23;;;;;;;7.73;6.20;;;4.90;1.00;;;;;;5097907;28;20771;-59
2022/03/06 12:49:51;;;;;;;7.73;6.47;;;4.70;1.00;;;;;;5090620;28;20460;-58
2022/03/06 12:52:22;;;;;;;6.77;6.00;;;4.60;1.00;;;;;;5095246;28;20186;-57
2022/03/06 12:54:49;;;;;;;9.13;7.30;;;4.70;1.00;;;;;;5091847;28;20448;-58
2022/03/06 12:57:15;;;;;;;5.83;5.00;;;;;;;;;;5091630;28;20447;-56
2022/03/06 12:59:42;;;;;;;5.93;5.40;;;4.80;1.00;;;;;;5094497;28;20441;-57
2022/03/06 13:02:09;;;;;;;6.07;5.50;;;4.50;1.00;;;;;;5093616;28;20529;-55
2022/03/06 13:04:35;;;;;;;4.97;4.50;;;;;;;;;;5092555;28;20464;-59
2022/03/06 13:07:01;;;;;;;5.17;4.67;;;4.50;1.00;;;;;;5093505;28;20498;-55
2022/03/06 13:09:34;;;;;;;5.30;4.80;;;4.50;1.00;;;;;;5092476;28;20543;-54
2022/03/06 13:12:00;;;;;;;8.30;5.77;;;4.50;1.00;;;;;;5090844;28;20447;-56
2022/03/06 13:14:34;;;;;;;6.40;5.80;;;4.50;1.00;;;;;;5095285;28;20534;-55
2022/03/06 13:17:11;;;;;;;6.43;4.53;;;4.40;1.00;;;;;;5092576;28;20855;-57
2022/03/06 13:19:40;;;;;;;5.07;4.57;;;4.40;1.00;;;;;;5095111;28;21085;-58
2022/03/06 13:22:08;;;;;;;5.80;4.53;;;4.50;1.00;;;;;;5091763;28;21147;-56
2022/03/06 13:24:49;;;;;;;5.70;4.70;;;4.70;1.00;;;;;;5099230;28;20460;-57
2022/03/06 13:27:23;;;;;;;5.40;4.77;;;4.90;1.00;;;;;;5096490;28;20436;-57
2022/03/06 13:30:12;;;;;;;6.63;5.00;;;5.00;1.00;;;;;;5097563;28;20781;-58
2022/03/06 13:32:43;;;;;;;6.20;5.30;;;5.20;1.00;;;;;;5093575;28;20441;-58
2022/03/06 13:35:24;;;;;;;6.80;5.60;;;5.20;1.00;;;;;;5090998;28;20513;-58
2022/03/06 13:37:55;;;;;;;9.30;5.70;;;5.20;1.00;;;;;;5091325;28;20441;-58
2022/03/06 13:40:24;;;;;;;5.83;4.70;;;5.10;1.00;;;;;;5093909;28;20464;-58
2022/03/06 13:42:50;;;;;;;5.83;5.23;;;4.90;1.00;;;;;;5090528;28;20445;-58
2022/03/06 13:45:15;;;;;;;8.17;5.00;;;4.80;1.00;;;;;;5091288;28;21044;-57